Time;durP1;ratioP1;P1;durP2;ratioP2;P2;SDS_P1;SDS_P2;PMS_P1;PMS_P2;Temp;Humidity;BMP_temperature;BMP_pressure;BME280_temperature;BME280_humidity;BME280_pressure;Samples;Min_cycle;Max_cycle;Signal;HPM_P1;HPM_P2
2023/09/06 00:03:03;;;;;;;12.80;8.50;;;;;;;14.60;83.05;101479.27;105705;1261;104250;-84
2023/09/06 00:05:49;;;;;;;14.10;8.70;;;;;;;14.58;82.85;101480.54;105742;1266;99791;-85
2023/09/06 00:08:34;;;;;;;18.40;10.60;;;;;;;14.57;82.74;101489.98;105741;1259;98539;-85
2023/09/06 00:11:20;;;;;;;15.50;9.90;;;;;;;14.54;83.05;101486.99;105583;1267;98025;-84
2023/09/06 00:14:06;;;;;;;18.30;8.90;;;;;;;14.48;83.03;101490.99;105768;1266;98410;-85
2023/09/06 00:16:51;;;;;;;15.30;10.30;;;;;;;14.44;82.83;101496.50;105727;1264;101513;-85
2023/09/06 00:19:37;;;;;;;16.80;8.70;;;;;;;14.39;82.91;101497.90;105579;1260;100165;-84
2023/09/06 00:22:23;;;;;;;13.50;9.00;;;;;;;14.32;82.87;101494.71;105602;1261;98046;-84
2023/09/06 00:25:08;;;;;;;17.90;9.50;;;;;;;14.26;82.83;101492.83;105688;1266;97943;-84
2023/09/06 00:27:55;;;;;;;13.50;8.20;;;;;;;14.22;82.98;101491.48;105712;1264;99436;-84
2023/09/06 00:30:44;;;;;;;18.30;9.40;;;;;;;14.19;82.85;101491.73;105769;1267;101336;-84
2023/09/06 00:33:33;;;;;;;12.00;8.90;;;;;;;14.16;82.96;101490.73;105660;1260;99772;-85
2023/09/06 00:36:18;;;;;;;13.70;9.50;;;;;;;14.11;82.96;101492.88;105643;1266;98055;-85
2023/09/06 00:39:05;;;;;;;16.20;8.90;;;;;;;14.07;82.94;101490.00;105769;1265;97936;-86
2023/09/06 00:41:51;;;;;;;15.70;9.40;;;;;;;14.05;83.06;101487.41;105614;1261;98074;-84
2023/09/06 00:44:36;;;;;;;15.60;9.30;;;;;;;14.03;83.33;101483.82;105627;1276;128432;-83
2023/09/06 00:47:22;;;;;;;14.70;8.70;;;;;;;14.02;83.75;101480.90;105646;1264;100369;-84
2023/09/06 00:50:10;;;;;;;14.40;9.00;;;;;;;13.99;83.95;101474.35;105679;1261;98805;-85
2023/09/06 00:52:57;;;;;;;16.30;9.90;;;;;;;13.94;84.00;101471.43;105682;1259;97768;-85
2023/09/06 00:55:42;;;;;;;14.60;9.30;;;;;;;13.92;84.38;101472.81;105678;1260;97316;-84
2023/09/06 00:58:29;;;;;;;15.30;9.70;;;;;;;13.92;84.52;101473.31;105686;1266;103237;-84
2023/09/06 01:01:16;;;;;;;15.40;9.50;;;;;;;13.92;84.65;101477.17;105685;1267;99160;-84
2023/09/06 01:04:01;;;;;;;17.00;9.50;;;;;;;13.94;84.57;101478.69;105641;1267;99009;-85
2023/09/06 01:06:56;;;;;;;15.60;9.30;;;;;;;13.92;84.59;101476.69;105707;1261;98316;-84
2023/09/06 01:09:41;;;;;;;14.00;9.10;;;;;;;13.90;84.58;101472.17;105550;1259;98514;-84
2023/09/06 01:12:28;;;;;;;13.00;9.00;;;;;;;13.85;84.58;101474.17;105688;1261;102712;-84
2023/09/06 01:15:13;;;;;;;13.00;9.10;;;;;;;13.81;84.26;101473.83;105683;1263;99899;-84
2023/09/06 01:18:02;;;;;;;12.70;8.90;;;;;;;13.77;84.19;101476.92;105738;1267;107738;-84
2023/09/06 01:20:57;;;;;;;16.20;9.10;;;;;;;13.75;84.53;101481.80;105370;1261;98086;-84
2023/09/06 01:23:44;;;;;;;15.60;10.20;;;;;;;13.76;84.70;101482.30;105660;1260;97855;-83
2023/09/06 01:26:32;;;;;;;16.60;10.70;;;;;;;13.75;84.51;101479.71;105677;1264;101320;-84
2023/09/06 01:29:18;;;;;;;17.60;10.30;;;;;;;13.73;84.36;101476.04;105848;1264;99239;-84
2023/09/06 01:32:05;;;;;;;14.10;9.50;;;;;;;13.68;84.17;101475.72;105687;1260;97949;-84
2023/09/06 01:34:52;;;;;;;17.20;9.90;;;;;;;13.64;84.16;101478.77;105685;1264;98150;-85
2023/09/06 01:37:38;;;;;;;18.40;10.50;;;;;;;13.62;84.43;101476.54;105712;1263;98519;-84
2023/09/06 01:40:26;;;;;;;16.00;9.60;;;;;;;13.60;84.59;101477.50;105608;1264;102709;-84
2023/09/06 01:43:13;;;;;;;14.70;9.20;;;;;;;13.55;84.61;101480.08;105664;1261;100524;-83
2023/09/06 01:45:59;;;;;;;17.00;8.90;;;;;;;13.48;84.16;101480.73;105609;1264;97999;-84
2023/09/06 01:48:46;;;;;;;13.00;8.70;;;;;;;13.41;84.07;101483.52;105711;1260;98061;-84
2023/09/06 01:51:32;;;;;;;13.10;7.70;;;;;;;13.37;84.16;101477.23;105583;1262;96460;-84
2023/09/06 01:54:18;;;;;;;13.00;8.30;;;;;;;13.31;84.19;101483.81;105704;1259;101425;-84
2023/09/06 01:57:06;;;;;;;13.10;8.30;;;;;;;13.28;84.41;101490.88;105876;1260;99951;-84
2023/09/06 01:59:52;;;;;;;13.30;7.90;;;;;;;13.24;84.39;101488.47;105760;1266;99009;-82
2023/09/06 02:02:37;;;;;;;14.40;7.60;;;;;;;13.19;84.54;101489.86;105833;1259;97962;-82
2023/09/06 02:05:23;;;;;;;10.90;7.40;;;;;;;13.12;84.29;101489.31;105766;1261;98496;-83
2023/09/06 02:08:09;;;;;;;12.50;8.60;;;;;;;13.07;84.36;101485.09;105800;1260;101430;-84
2023/09/06 02:10:55;;;;;;;13.00;7.90;;;;;;;13.00;84.27;101482.66;105802;1263;99159;-84
2023/09/06 02:13:40;;;;;;;13.50;7.70;;;;;;;12.95;84.19;101491.54;105688;1260;98854;-83
2023/09/06 02:16:26;;;;;;;11.70;7.20;;;;;;;12.92;84.46;101492.31;105742;1261;98067;-85
2023/09/06 02:19:11;;;;;;;11.30;7.20;;;;;;;12.83;84.27;101491.92;105858;1259;98075;-84
2023/09/06 02:21:57;;;;;;;10.60;7.30;;;;;;;12.74;84.36;101493.15;105789;1261;101439;-82
2023/09/06 02:24:42;;;;;;;11.20;7.40;;;;;;;12.69;84.57;101495.73;105857;1259;99241;-83
2023/09/06 02:27:28;;;;;;;10.00;7.30;;;;;;;12.65;84.72;101492.80;105852;1267;98537;-84
2023/09/06 02:30:13;;;;;;;12.00;7.00;;;;;;;12.61;84.58;101488.97;105702;1266;99324;-85
2023/09/06 02:33:00;;;;;;;10.10;7.10;;;;;;;12.59;84.74;101488.17;105630;1259;99783;-83
2023/09/06 02:35:47;;;;;;;8.60;6.80;;;;;;;12.56;84.85;101488.30;105886;1264;101598;-86
2023/09/06 02:38:33;;;;;;;9.80;7.30;;;;;;;12.53;84.56;101488.79;105853;1259;100351;-84
2023/09/06 02:41:20;;;;;;;11.60;7.40;;;;;;;12.49;84.72;101490.96;105683;1263;98130;-85
2023/09/06 02:44:07;;;;;;;12.90;7.60;;;;;;;12.44;84.77;101489.36;105614;1266;98514;-83
2023/09/06 02:46:53;;;;;;;10.10;7.20;;;;;;;12.40;85.05;101492.34;105774;1264;98581;-84
2023/09/06 02:49:42;;;;;;;13.20;8.20;;;;;;;12.35;84.99;101493.39;105689;1260;102143;-83
2023/09/06 02:52:30;;;;;;;12.10;7.90;;;;;;;12.31;85.21;101492.80;105603;1260;99186;-83
2023/09/06 02:55:15;;;;;;;11.80;7.70;;;;;;;12.29;85.43;101497.16;105811;1266;98570;-83
2023/09/06 02:58:02;;;;;;;11.00;7.30;;;;;;;12.27;85.46;101504.36;105847;1260;97959;-84
2023/09/06 03:00:49;;;;;;;12.30;7.00;;;;;;;12.23;85.23;101503.77;105800;1265;99573;-83
2023/09/06 03:03:34;;;;;;;12.00;7.70;;;;;;;12.21;85.31;101502.64;105658;1260;102824;-84
2023/09/06 03:06:32;;;;;;;15.80;8.50;;;;;;;12.18;85.44;101504.20;105618;1264;99119;-83
2023/09/06 03:09:28;;;;;;;12.80;7.10;;;;;;;12.18;85.70;101507.75;105580;1261;98377;-83
2023/09/06 03:12:16;;;;;;;11.70;7.80;;;;;;;12.19;85.81;101511.92;105624;1259;98061;-85
2023/09/06 03:15:08;;;;;;;14.00;8.30;;;;;;;12.21;85.84;101511.23;105665;1264;97969;-84
2023/09/06 03:17:58;;;;;;;12.40;7.70;;;;;;;12.21;85.95;101512.81;105733;1262;102796;-83
2023/09/06 03:20:44;;;;;;;12.10;7.30;;;;;;;12.20;85.72;101514.16;105907;1264;100016;-84
2023/09/06 03:23:35;;;;;;;10.30;7.40;;;;;;;12.19;85.67;101511.81;105687;1261;99025;-84
2023/09/06 03:26:24;;;;;;;14.30;7.60;;;;;;;12.19;85.75;101514.48;105607;1265;98108;-84
2023/09/06 03:29:10;;;;;;;11.60;7.60;;;;;;;12.18;85.98;101516.70;105631;1261;98592;-84
2023/09/06 03:31:57;;;;;;;11.10;7.70;;;;;;;12.16;85.91;101513.94;105729;1260;101435;-85
2023/09/06 03:34:42;;;;;;;12.10;8.60;;;;;;;12.14;85.95;101511.84;105739;1264;100440;-83
2023/09/06 03:37:30;;;;;;;14.40;7.90;;;;;;;12.15;86.20;101509.88;105722;1264;98013;-84
2023/09/06 03:40:25;;;;;;;16.30;9.90;;;;;;;12.17;86.66;101512.15;105446;1270;98005;-84
2023/09/06 03:43:19;;;;;;;12.40;8.60;;;;;;;12.18;86.98;101514.16;105717;1267;99265;-84
2023/09/06 03:46:09;;;;;;;14.70;8.80;;;;;;;12.19;87.20;101510.84;105659;1264;102610;-83
2023/09/06 03:48:55;;;;;;;12.10;8.80;;;;;;;12.19;87.12;101508.77;105781;1259;100448;-84
2023/09/06 03:51:42;;;;;;;15.40;9.80;;;;;;;12.18;87.44;101509.34;105672;1260;98563;-84
2023/09/06 03:54:29;;;;;;;14.20;9.00;;;;;;;12.19;87.36;101510.88;105759;1260;97971;-83
2023/09/06 03:57:14;;;;;;;13.80;9.30;;;;;;;12.16;86.69;101505.65;105814;1261;97969;-84
2023/09/06 04:00:03;;;;;;;14.40;8.30;;;;;;;12.10;86.42;101508.36;105676;1266;101420;-84
2023/09/06 04:03:03;;;;;;;14.20;8.80;;;;;;;12.04;86.52;101509.73;105735;1261;99247;-83
2023/09/06 04:05:50;;;;;;;16.70;10.20;;;;;;;12.04;87.03;101509.94;105611;1266;98357;-84
2023/09/06 04:08:38;;;;;;;18.70;10.90;;;;;;;12.08;87.55;101511.33;105709;1264;97997;-84
2023/09/06 04:11:24;;;;;;;19.00;12.30;;;;;;;12.11;88.02;101512.37;105683;1261;98479;-85
2023/09/06 04:14:09;;;;;;;18.60;11.20;;;;;;;12.14;88.26;101516.98;105705;1263;101360;-84
2023/09/06 04:16:55;;;;;;;17.10;10.00;;;;;;;12.16;87.83;101512.79;105662;1260;100647;-84
2023/09/06 04:19:42;;;;;;;13.40;10.40;;;;;;;12.14;87.39;101512.88;105791;1260;97899;-84
2023/09/06 04:22:27;;;;;;;15.60;9.60;;;;;;;12.09;87.25;101508.77;105659;1264;97954;-84
2023/09/06 04:25:19;;;;;;;14.40;9.10;;;;;;;12.07;87.05;101511.95;105759;1261;99610;-83
2023/09/06 04:28:07;;;;;;;13.60;8.90;;;;;;;12.05;86.99;101510.08;105752;1264;101412;-85
2023/09/06 04:30:53;;;;;;;14.30;9.30;;;;;;;12.02;87.00;101508.94;105591;1264;100399;-84
2023/09/06 04:33:41;;;;;;;17.70;8.60;;;;;;;12.00;87.28;101514.21;105407;1264;97969;-83
2023/09/06 04:36:36;;;;;;;14.60;8.00;;;;;;;11.98;87.55;101514.38;105572;1260;98014;-83
2023/09/06 04:39:28;;;;;;;14.30;8.80;;;;;;;11.97;87.48;101512.39;105662;1266;99638;-84
2023/09/06 04:42:15;;;;;;;14.70;8.20;;;;;;;11.95;87.61;101514.36;105631;1259;102690;-84
2023/09/06 04:45:01;;;;;;;10.10;7.70;;;;;;;11.92;87.65;101514.88;105512;1264;99213;-84
2023/09/06 04:47:46;;;;;;;14.10;8.40;;;;;;;11.90;87.83;101514.27;105401;1270;98077;-83
2023/09/06 04:50:32;;;;;;;14.60;7.70;;;;;;;11.90;87.76;101511.55;105764;1263;97963;-84
2023/09/06 04:53:17;;;;;;;13.20;8.10;;;;;;;11.90;88.01;101511.33;105805;1259;98013;-83
2023/09/06 04:56:06;;;;;;;15.80;10.00;;;;;;;11.93;88.34;101514.30;105682;1264;101440;-83
2023/09/06 04:58:59;;;;;;;18.90;9.90;;;;;;;11.95;88.86;101513.53;105795;1260;100943;-84
2023/09/06 05:01:45;;;;;;;19.30;11.30;;;;;;;11.98;89.12;101515.54;105674;1260;98184;-84
2023/09/06 05:04:32;;;;;;;17.30;10.90;;;;;;;12.01;89.69;101520.27;105628;1261;97891;-84
2023/09/06 05:07:18;;;;;;;14.60;9.50;;;;;;;12.05;89.98;101523.22;105701;1259;98521;-84
2023/09/06 05:10:04;;;;;;;12.90;9.40;;;;;;;12.09;90.25;101523.10;105677;1266;102823;-83
2023/09/06 05:12:51;;;;;;;17.10;9.70;;;;;;;12.13;90.76;101523.05;105676;1266;99777;-84
2023/09/06 05:15:38;;;;;;;16.90;9.70;;;;;;;12.17;90.81;101524.38;105608;1261;98854;-84
2023/09/06 05:18:25;;;;;;;15.90;10.40;;;;;;;12.22;91.19;101527.89;105816;1261;98565;-85
2023/09/06 05:21:10;;;;;;;14.10;8.60;;;;;;;12.28;91.80;101528.76;105719;1266;98068;-85
2023/09/06 05:23:57;;;;;;;11.80;9.40;;;;;;;12.35;92.20;101529.60;105698;1263;101393;-83
2023/09/06 05:26:42;;;;;;;14.40;8.40;;;;;;;12.43;92.45;101530.70;105766;1264;100308;-84
2023/09/06 05:29:29;;;;;;;15.30;10.60;;;;;;;12.51;92.76;101532.27;105845;1261;99014;-83
2023/09/06 05:32:18;;;;;;;12.50;8.80;;;;;;;12.59;93.38;101535.11;105815;1266;98064;-85
2023/09/06 05:35:05;;;;;;;13.80;10.00;;;;;;;12.67;93.91;101532.89;105500;1259;98052;-85
2023/09/06 05:37:52;;;;;;;16.30;9.50;;;;;;;12.76;94.19;101530.95;105663;1259;101421;-84
2023/09/06 05:40:43;;;;;;;16.10;9.40;;;;;;;12.86;94.66;101533.02;105811;1263;99355;-84
2023/09/06 05:43:33;;;;;;;14.30;10.00;;;;;;;12.97;95.21;101528.64;105766;1266;107775;-83
2023/09/06 05:46:20;;;;;;;16.00;10.50;;;;;;;13.06;95.66;101532.63;105610;1267;97997;-84
2023/09/06 05:49:05;;;;;;;16.30;9.70;;;;;;;13.15;96.48;101534.92;105697;1260;99659;-84
2023/09/06 05:51:53;;;;;;;16.00;10.60;;;;;;;13.24;97.06;101535.98;105706;1267;103108;-84
2023/09/06 05:54:39;;;;;;;20.40;11.70;;;;;;;13.34;97.51;101536.27;105904;1264;100449;-79
2023/09/06 05:57:25;;;;;;;18.00;12.10;;;;;;;13.45;97.61;101536.58;105770;1259;98042;-83
2023/09/06 06:00:15;;;;;;;16.70;11.90;;;;;;;13.56;97.91;101537.84;105904;1261;99010;-86
2023/09/06 06:03:06;;;;;;;18.20;11.60;;;;;;;13.70;98.42;101535.40;105777;1259;98391;-88
2023/09/06 06:05:52;;;;;;;15.20;11.40;;;;;;;13.84;98.95;101538.52;105881;1259;101381;-86
2023/09/06 06:08:38;;;;;;;17.30;11.50;;;;;;;13.98;99.47;101533.15;106005;1263;100052;-88
2023/09/06 06:11:25;;;;;;;18.60;12.40;;;;;;;14.11;99.41;101535.79;105932;1260;97988;-85
2023/09/06 06:14:11;;;;;;;20.80;12.90;;;;;;;14.25;99.33;101542.94;105836;1260;97909;-85
2023/09/06 06:16:57;;;;;;;18.00;11.60;;;;;;;14.39;99.39;101545.50;105722;1260;98529;-84
2023/09/06 06:19:44;;;;;;;18.10;12.30;;;;;;;14.55;99.20;101547.44;105815;1260;101464;-84
2023/09/06 06:22:30;;;;;;;20.40;11.70;;;;;;;14.72;99.01;101548.18;106002;1259;101378;-88
2023/09/06 06:25:16;;;;;;;16.00;11.30;;;;;;;14.89;98.57;101550.19;106180;1259;97921;-83
2023/09/06 06:28:02;;;;;;;18.40;11.80;;;;;;;15.06;98.54;101548.57;106070;1263;98473;-83
2023/09/06 06:30:48;;;;;;;17.40;11.70;;;;;;;15.21;98.05;101549.46;105985;1264;98416;-84
2023/09/06 06:33:35;;;;;;;15.40;10.50;;;;;;;15.37;97.66;101551.06;105898;1261;102749;-86
2023/09/06 06:36:21;;;;;;;13.20;10.20;;;;;;;15.54;97.55;101549.66;106024;1261;101381;-88
2023/09/06 06:39:07;;;;;;;18.80;12.00;;;;;;;15.70;97.32;101548.20;105759;1261;99530;-85
2023/09/06 06:41:52;;;;;;;15.20;10.00;;;;;;;15.86;96.93;101545.77;105703;1260;97972;-82
2023/09/06 06:44:38;;;;;;;17.40;9.80;;;;;;;16.02;96.06;101548.32;105858;1261;97695;-84
2023/09/06 06:47:24;;;;;;;16.00;10.90;;;;;;;16.17;95.41;101552.11;105872;1260;102044;-83
2023/09/06 06:50:10;;;;;;;15.00;10.30;;;;;;;16.32;94.86;101555.17;105892;1260;100601;-88
2023/09/06 06:52:56;;;;;;;17.30;10.90;;;;;;;16.47;94.50;101552.84;106032;1261;98906;-85
2023/09/06 06:55:42;;;;;;;13.70;10.70;;;;;;;16.60;94.38;101555.98;105860;1260;97928;-86
2023/09/06 06:58:28;;;;;;;19.10;11.10;;;;;;;16.72;93.74;101555.61;105600;1261;98840;-87
2023/09/06 07:01:14;;;;;;;15.80;9.60;;;;;;;16.83;93.43;101551.73;105887;1260;101477;-87
2023/09/06 07:04:03;;;;;;;15.30;9.70;;;;;;;16.95;93.25;101550.38;106306;1266;100087;-90
2023/09/06 07:06:49;;;;;;;15.30;10.60;;;;;;;17.07;93.24;101552.69;105599;1261;97941;-86
2023/09/06 07:09:35;;;;;;;17.80;10.70;;;;;;;17.19;93.32;101553.16;105566;1260;97987;-83
2023/09/06 07:12:20;;;;;;;16.30;9.90;;;;;;;17.32;93.25;101558.80;105781;1263;98577;-84
2023/09/06 07:15:07;;;;;;;14.30;10.60;;;;;;;17.45;92.76;101559.44;105843;1261;101347;-88
2023/09/06 07:17:52;;;;;;;19.70;9.90;;;;;;;17.59;92.11;101561.88;105852;1264;99665;-84
2023/09/06 07:20:37;;;;;;;14.00;9.70;;;;;;;17.70;92.39;101562.25;105852;1263;99077;-84
2023/09/06 07:23:23;;;;;;;18.00;9.60;;;;;;;17.82;92.08;101566.81;105724;1261;97879;-82
2023/09/06 07:26:09;;;;;;;15.00;10.30;;;;;;;17.93;92.05;101566.27;105775;1259;98488;-86
2023/09/06 07:28:55;;;;;;;14.00;10.10;;;;;;;18.04;92.54;101571.33;105741;1261;101474;-85
2023/09/06 07:31:40;;;;;;;14.10;9.50;;;;;;;18.14;92.58;101572.13;105695;1260;99170;-84
2023/09/06 07:34:26;;;;;;;15.40;9.10;;;;;;;18.25;91.61;101574.06;106033;1261;99197;-84
2023/09/06 07:37:12;;;;;;;13.70;8.70;;;;;;;18.35;91.44;101574.20;105603;1261;98067;-85
2023/09/06 07:40:00;;;;;;;18.40;8.70;;;;;;;18.48;90.81;101575.19;105813;1264;98481;-83
2023/09/06 07:42:46;;;;;;;13.60;8.90;;;;;;;18.61;89.99;101580.06;105630;1260;101443;-84
2023/09/06 07:45:31;;;;;;;14.10;8.70;;;;;;;18.73;88.88;101584.52;105542;1260;99190;-84
2023/09/06 07:48:38;;;;;;;12.10;8.20;;;;;;;18.84;88.96;101584.02;105895;1264;98995;-91
2023/09/06 07:51:30;;;;;;;11.80;8.00;;;;;;;18.97;89.16;101581.21;106517;1260;97898;-91
2023/09/06 07:54:15;;;;;;;13.40;8.00;;;;;;;19.10;89.05;101579.92;105558;1262;98425;-84
2023/09/06 07:57:00;;;;;;;12.00;7.50;;;;;;;19.20;87.85;101579.20;105897;1263;101543;-80
2023/09/06 08:02:58;;;;;;;10.40;7.40;;;;;;;19.42;86.22;101578.14;106056;1263;99095;-86
2023/09/06 08:05:46;;;;;;;11.00;7.30;;;;;;;19.53;86.28;101576.96;105676;1260;99678;-86
2023/09/06 08:08:31;;;;;;;13.00;7.80;;;;;;;19.63;86.20;101576.71;105748;1264;98409;-86
2023/09/06 08:11:17;;;;;;;12.00;7.60;;;;;;;19.74;85.41;101576.86;105706;1263;102444;-83
2023/09/06 08:14:04;;;;;;;12.90;7.40;;;;;;;19.86;84.93;101577.63;105537;1261;99587;-83
2023/09/06 08:16:49;;;;;;;11.70;7.40;;;;;;;19.96;84.35;101575.48;105607;1266;98597;-82
2023/09/06 08:19:35;;;;;;;13.90;7.70;;;;;;;20.05;84.54;101576.52;105612;1267;98109;-82
2023/09/06 08:22:20;;;;;;;14.40;7.70;;;;;;;20.16;83.54;101576.61;105795;1263;98493;-81
2023/09/06 08:25:06;;;;;;;14.60;7.40;;;;;;;20.27;82.77;101575.59;105700;1260;110051;-86
2023/09/06 08:27:52;;;;;;;11.40;7.10;;;;;;;20.36;82.24;101577.39;106151;1260;99179;-87
2023/09/06 08:30:38;;;;;;;10.30;6.70;;;;;;;20.45;82.31;101577.06;105858;1261;97994;-84
2023/09/06 08:33:24;;;;;;;9.40;6.30;;;;;;;20.54;81.32;101581.09;105528;1261;99241;-83
2023/09/06 08:36:11;;;;;;;12.70;7.30;;;;;;;20.62;80.70;101583.55;105544;1261;98073;-85
2023/09/06 08:38:58;;;;;;;9.70;6.40;;;;;;;20.70;80.48;101580.89;105752;1261;101701;-84
2023/09/06 08:41:48;;;;;;;10.90;7.10;;;;;;;20.77;79.03;101584.63;105667;1260;99226;-84
2023/09/06 08:44:36;;;;;;;;;;;;;;;20.84;78.82;101584.76;105739;1263;98021;-81
2023/09/06 08:47:21;;;;;;;8.80;6.10;;;;;;;20.89;78.99;101585.23;105552;1259;98007;-85
2023/09/06 08:50:09;;;;;;;17.00;6.70;;;;;;;20.97;77.98;101584.00;105902;1259;98059;-84
2023/09/06 08:52:56;;;;;;;9.20;6.30;;;;;;;21.07;78.33;101583.84;105989;1260;102686;-88
2023/09/06 08:55:44;;;;;;;8.90;5.80;;;;;;;21.18;77.92;101582.39;105923;1259;100765;-87
2023/09/06 08:58:30;;;;;;;9.60;5.80;;;;;;;21.27;77.40;101581.82;105868;1259;97965;-88
2023/09/06 09:01:16;;;;;;;8.70;4.80;;;;;;;21.34;75.87;101582.88;106059;1260;98020;-88
2023/09/06 09:04:02;;;;;;;6.60;4.90;;;;;;;21.43;75.18;101582.35;105801;1264;98016;-88
2023/09/06 09:06:48;;;;;;;13.20;4.90;;;;;;;21.52;74.05;101579.15;106086;1259;102367;-87
2023/09/06 09:09:54;;;;;;;6.50;4.60;;;;;;;21.59;72.95;101581.56;106359;1260;99836;-88
2023/09/06 09:12:40;;;;;;;11.10;4.70;;;;;;;21.66;72.30;101583.20;106301;1261;98622;-87
2023/09/06 09:15:25;;;;;;;8.50;4.70;;;;;;;21.74;72.89;101582.84;105843;1259;98086;-85
2023/09/06 09:18:12;;;;;;;8.80;4.80;;;;;;;21.82;71.45;101580.88;105528;1259;98448;-88
2023/09/06 09:20:57;;;;;;;9.30;3.80;;;;;;;21.88;70.16;101582.71;106156;1261;102621;-87
2023/09/06 09:23:46;;;;;;;5.00;4.00;;;;;;;21.94;69.54;101580.79;106203;1262;100012;-84
2023/09/06 09:26:33;;;;;;;6.00;4.00;;;;;;;22.01;69.13;101580.13;105817;1261;97964;-84
2023/09/06 09:29:27;;;;;;;6.30;4.20;;;;;;;22.08;68.47;101580.79;105661;1263;98050;-87
2023/09/06 09:32:14;;;;;;;6.70;4.60;;;;;;;22.17;67.66;101583.27;105709;1262;99657;-86
2023/09/06 09:35:01;;;;;;;8.70;4.70;;;;;;;22.21;67.19;101581.84;105792;1260;101458;-87
2023/09/06 09:37:51;;;;;;;6.40;4.10;;;;;;;22.27;66.82;101582.02;106295;1264;99223;-88
2023/09/06 09:40:40;;;;;;;6.00;4.70;;;;;;;22.32;65.98;101583.01;105955;1261;98006;-90
2023/09/06 09:43:26;;;;;;;11.00;4.20;;;;;;;22.37;65.31;101584.80;106333;1264;98125;-88
2023/09/06 09:46:28;;;;;;;5.60;4.10;;;;;;;22.43;65.47;101584.06;105840;1260;98426;-85
2023/09/06 09:49:15;;;;;;;6.90;4.20;;;;;;;22.49;65.42;101585.23;105746;1259;101565;-85
2023/09/06 09:52:00;;;;;;;11.10;4.70;;;;;;;22.54;64.31;101585.77;105801;1261;99162;-84
2023/09/06 09:54:50;;;;;;;9.10;4.10;;;;;;;22.57;63.17;101588.02;105487;1267;99043;-85
2023/09/06 09:57:36;;;;;;;8.00;3.90;;;;;;;22.59;62.37;101587.06;105679;1259;98034;-84
2023/09/06 10:00:29;;;;;;;6.70;3.90;;;;;;;22.65;62.88;101582.38;105574;1259;97923;-84
2023/09/06 10:03:15;;;;;;;6.70;3.60;;;;;;;22.73;63.25;101581.27;105695;1264;102692;-84
2023/09/06 10:06:03;;;;;;;8.20;3.70;;;;;;;22.80;62.38;101579.67;105695;1258;99156;-84
2023/09/06 10:08:51;;;;;;;5.80;4.00;;;;;;;22.89;62.12;101581.77;105585;1260;99103;-85
2023/09/06 10:11:40;;;;;;;5.80;4.50;;;;;;;22.97;62.44;101584.91;105611;1260;97885;-84
2023/09/06 10:14:27;;;;;;;6.10;4.20;;;;;;;23.01;61.27;101586.52;105514;1259;97918;-86
2023/09/06 10:17:13;;;;;;;6.70;4.10;;;;;;;23.05;60.97;101590.70;105650;1259;101366;-84
2023/09/06 10:19:59;;;;;;;6.30;4.10;;;;;;;23.09;60.49;101589.14;105509;1261;99203;-85
2023/09/06 10:22:48;;;;;;;6.30;3.40;;;;;;;23.12;59.98;101589.30;105615;1267;98121;-84
2023/09/06 10:25:41;;;;;;;5.70;3.80;;;;;;;23.17;60.71;101589.83;105807;1259;97968;-84
2023/09/06 10:28:32;;;;;;;7.00;4.90;;;;;;;23.24;60.78;101588.81;105537;1259;98029;-84
2023/09/06 10:31:17;;;;;;;6.40;4.10;;;;;;;23.29;59.73;101589.11;105619;1261;101455;-84
2023/09/06 10:34:03;;;;;;;5.80;4.20;;;;;;;23.31;59.73;101587.56;105506;1259;99171;-85
2023/09/06 10:36:57;;;;;;;7.50;4.70;;;;;;;23.35;60.37;101586.89;105736;1258;99305;-85
2023/09/06 10:39:53;;;;;;;6.20;3.80;;;;;;;23.40;59.68;101582.78;105577;1266;97956;-85
2023/09/06 10:42:39;;;;;;;5.70;3.60;;;;;;;23.47;59.52;101585.69;105609;1259;98015;-84
2023/09/06 10:45:26;;;;;;;5.10;3.40;;;;;;;23.53;59.28;101585.02;105533;1260;101484;-86
2023/09/06 10:48:12;;;;;;;6.30;3.40;;;;;;;23.57;58.80;101585.97;105698;1260;100431;-85
2023/09/06 10:51:06;;;;;;;7.10;3.40;;;;;;;23.60;58.34;101584.05;105375;1264;97876;-85
2023/09/06 10:53:53;;;;;;;7.50;4.20;;;;;;;23.63;58.84;101579.17;105576;1261;98099;-85
2023/09/06 10:56:39;;;;;;;9.60;4.20;;;;;;;23.70;58.84;101577.61;105562;1262;97147;-85
2023/09/06 10:59:27;;;;;;;9.20;4.00;;;;;;;23.81;59.44;101575.14;105562;1266;102634;-85
2023/09/06 11:02:26;;;;;;;6.80;3.60;;;;;;;23.88;59.44;101576.17;105576;1260;100156;-84
2023/09/06 11:05:35;;;;;;;5.40;3.60;;;;;;;23.92;58.57;101574.16;105536;1261;98036;-85
2023/09/06 11:08:29;;;;;;;7.20;3.70;;;;;;;23.97;57.86;101573.41;105600;1264;97904;-84
2023/09/06 11:11:15;;;;;;;9.10;3.90;;;;;;;24.01;58.16;101569.80;105454;1261;98633;-85
2023/09/06 11:14:01;;;;;;;7.80;3.30;;;;;;;24.05;58.25;101563.20;105760;1261;103121;-85
2023/09/06 11:16:47;;;;;;;5.20;3.70;;;;;;;24.09;57.91;101559.98;105554;1260;100454;-84
2023/09/06 11:19:36;;;;;;;6.90;3.80;;;;;;;24.14;58.15;101560.59;105577;1266;98003;-85
2023/09/06 11:22:21;;;;;;;6.10;3.50;;;;;;;24.20;57.33;101559.52;105552;1266;97965;-85
2023/09/06 11:25:33;;;;;;;6.00;3.60;;;;;;;24.25;56.78;101558.50;105678;1260;97987;-85
2023/09/06 11:28:19;;;;;;;6.90;3.40;;;;;;;24.30;56.60;101556.50;105644;1267;101420;-85
2023/09/06 11:31:29;;;;;;;4.80;3.10;;;;;;;24.35;56.08;101556.95;105811;1260;99177;-86
2023/09/06 11:34:17;;;;;;;7.30;3.00;;;;;;;24.37;55.25;101555.27;105622;1261;97985;-86
2023/09/06 11:37:06;;;;;;;5.30;3.50;;;;;;;24.41;54.79;101553.61;105576;1263;96023;-86
2023/09/06 11:39:51;;;;;;;6.20;3.30;;;;;;;24.43;56.17;101551.78;105665;1261;98425;-85
2023/09/06 11:42:41;;;;;;;5.40;3.50;;;;;;;24.49;56.63;101552.13;105613;1260;101424;-85
2023/09/06 11:45:28;;;;;;;4.30;3.10;;;;;;;24.54;55.78;101550.31;105783;1261;100423;-86
2023/09/06 11:48:19;;;;;;;4.90;3.40;;;;;;;24.58;54.96;101548.89;105603;1261;98029;-86
2023/09/06 11:51:12;;;;;;;4.60;3.20;;;;;;;24.59;53.71;101548.15;105560;1266;97966;-86
2023/09/06 11:54:00;;;;;;;5.60;3.60;;;;;;;24.62;54.08;101546.80;105662;1263;98487;-85
2023/09/06 11:56:48;;;;;;;5.50;3.30;;;;;;;24.68;54.89;101544.45;105554;1267;102101;-86
2023/09/06 11:59:33;;;;;;;6.40;3.70;;;;;;;24.72;53.32;101541.94;105793;1264;99237;-85
2023/09/06 12:02:21;;;;;;;8.80;3.40;;;;;;;24.72;53.09;101539.91;105650;1259;99056;-85
2023/09/06 12:05:11;;;;;;;3.80;3.10;;;;;;;24.75;52.87;101537.61;105706;1260;99222;-85
2023/09/06 12:08:01;;;;;;;7.70;3.70;;;;;;;24.80;53.57;101538.38;105667;1264;99801;-86
2023/09/06 12:10:52;;;;;;;8.70;3.10;;;;;;;24.89;53.94;101538.58;105707;1264;101499;-86
2023/09/06 12:13:38;;;;;;;;;;;;;;;24.96;53.81;101538.60;105735;1262;99160;-85
2023/09/06 12:16:24;;;;;;;4.90;3.20;;;;;;;25.00;54.02;101534.58;105735;1259;98676;-86
2023/09/06 12:19:12;;;;;;;6.20;3.30;;;;;;;25.04;52.90;101533.52;105497;1262;98147;-87
2023/09/06 12:21:59;;;;;;;5.20;3.60;;;;;;;25.07;52.40;101528.94;105443;1269;99257;-86
2023/09/06 12:24:48;;;;;;;7.30;3.40;;;;;;;25.09;52.47;101526.29;105662;1264;101427;-86
2023/09/06 12:27:34;;;;;;;4.70;3.30;;;;;;;25.13;52.29;101523.46;105574;1259;100386;-86
2023/09/06 12:30:21;;;;;;;4.40;3.10;;;;;;;25.18;52.78;101521.77;105710;1260;97903;-85
2023/09/06 12:33:06;;;;;;;5.90;3.40;;;;;;;25.24;53.50;101524.34;105728;1265;98028;-86
2023/09/06 12:35:58;;;;;;;4.40;3.30;;;;;;;25.30;53.38;101518.13;105520;1264;97876;-85
2023/09/06 12:38:46;;;;;;;6.30;3.70;;;;;;;25.36;53.10;101514.39;105572;1265;101485;-86
2023/09/06 12:41:32;;;;;;;4.70;3.80;;;;;;;25.40;52.56;101514.91;105652;1262;99235;-85
2023/09/06 12:44:18;;;;;;;4.60;3.50;;;;;;;25.41;51.98;101513.55;105503;1259;159129;-86
2023/09/06 12:47:06;;;;;;;4.00;3.20;;;;;;;25.45;52.49;101509.05;105602;1263;98348;-85